Time;durP1;ratioP1;P1;durP2;ratioP2;P2;SDS_P1;SDS_P2;PMS_P1;PMS_P2;Temp;Humidity;BMP_temperature;BMP_pressure;BME280_temperature;BME280_humidity;BME280_pressure;Samples;Min_cycle;Max_cycle;Signal;HPM_P1;HPM_P2
2021/08/12 00:00:55;;;;;;;6.82;6.22;;;19.40;99.90;;;;;;2072423;28;20030;-68
2021/08/12 00:01:55;;;;;;;6.53;5.90;;;19.40;99.90;;;;;;2072777;28;20060;-68
2021/08/12 00:02:56;;;;;;;7.10;6.45;;;19.40;99.90;;;;;;2072095;28;20089;-68
2021/08/12 00:03:56;;;;;;;7.78;6.55;;;19.40;99.90;;;;;;2073385;28;20021;-68
2021/08/12 00:04:57;;;;;;;6.40;5.78;;;19.40;99.90;;;;;;2072767;28;20352;-68
2021/08/12 00:05:57;;;;;;;8.68;6.18;;;19.40;99.90;;;;;;2072744;28;20084;-68
2021/08/12 00:06:59;;;;;;;7.43;6.20;;;19.40;99.90;;;;;;2072660;28;20429;-68
2021/08/12 00:07:59;;;;;;;7.28;6.20;;;19.40;99.90;;;;;;2072309;28;20049;-68
2021/08/12 00:09:00;;;;;;;7.28;5.85;;;19.40;99.90;;;;;;2072694;28;20032;-68
2021/08/12 00:10:00;;;;;;;9.27;6.53;;;19.30;99.90;;;;;;2072944;28;20026;-68
2021/08/12 00:11:02;;;;;;;6.07;5.45;;;19.30;99.90;;;;;;2072399;28;20060;-68
2021/08/12 00:12:03;;;;;;;6.38;5.78;;;19.30;99.90;;;;;;2072530;28;20030;-68
2021/08/12 00:13:04;;;;;;;6.97;6.10;;;19.40;99.90;;;;;;2072254;28;20668;-68
2021/08/12 00:14:05;;;;;;;6.53;5.93;;;19.30;99.90;;;;;;2074707;28;20076;-68
2021/08/12 00:15:05;;;;;;;8.18;6.32;;;19.30;99.90;;;;;;2072766;28;20053;-68
2021/08/12 00:16:06;;;;;;;6.55;5.95;;;19.30;99.90;;;;;;2072531;28;20033;-68
2021/08/12 00:17:06;;;;;;;5.95;5.45;;;19.30;99.90;;;;;;2072678;28;20382;-68
2021/08/12 00:18:07;;;;;;;6.70;6.10;;;19.30;99.90;;;;;;2071778;28;20029;-68
2021/08/12 00:19:14;;;;;;;10.40;5.63;;;19.30;99.90;;;;;;2071864;28;20022;-68
2021/08/12 00:20:14;;;;;;;8.25;6.25;;;19.30;99.90;;;;;;2065706;28;20019;-68
2021/08/12 00:21:15;;;;;;;9.90;6.00;;;19.20;99.90;;;;;;2072730;28;20049;-68
2021/08/12 00:22:15;;;;;;;7.45;6.68;;;19.20;99.90;;;;;;2072468;28;20026;-68
2021/08/12 00:23:16;;;;;;;7.25;6.30;;;19.30;99.90;;;;;;2072015;28;20090;-68
2021/08/12 00:24:21;;;;;;;7.43;6.65;;;19.20;99.90;;;;;;2073342;28;20018;-68
2021/08/12 00:25:21;;;;;;;7.45;6.70;;;19.20;99.90;;;;;;2072266;28;20041;-68
2021/08/12 00:26:22;;;;;;;7.88;6.10;;;19.20;99.90;;;;;;2072940;28;20098;-68
2021/08/12 00:27:22;;;;;;;6.45;5.85;;;19.20;99.90;;;;;;2072306;28;20561;-68
2021/08/12 00:28:23;;;;;;;6.75;5.70;;;19.20;99.90;;;;;;2072603;28;20425;-68
2021/08/12 00:29:24;;;;;;;7.38;6.15;;;19.20;99.90;;;;;;2072395;28;20139;-68
2021/08/12 00:30:24;;;;;;;6.30;5.70;;;19.20;99.90;;;;;;2072714;28;20112;-68
2021/08/12 00:31:25;;;;;;;6.32;5.72;;;19.20;99.90;;;;;;2072451;28;20026;-68
2021/08/12 00:32:25;;;;;;;7.03;6.38;;;19.20;99.90;;;;;;2072382;28;20393;-68
2021/08/12 00:33:26;;;;;;;6.43;5.82;;;19.10;99.90;;;;;;2073092;28;20041;-68
2021/08/12 00:34:27;;;;;;;6.38;5.78;;;19.10;99.90;;;;;;2080195;28;20034;-68
2021/08/12 00:35:27;;;;;;;7.47;6.45;;;19.10;99.90;;;;;;2074226;28;20036;-68
2021/08/12 00:36:28;;;;;;;7.68;6.35;;;19.10;99.90;;;;;;2072479;28;20029;-68
2021/08/12 00:37:28;;;;;;;6.82;6.13;;;19.10;99.90;;;;;;2072301;28;20246;-68
2021/08/12 00:38:29;;;;;;;7.32;6.18;;;19.10;99.90;;;;;;2072096;28;20077;-68
2021/08/12 00:39:29;;;;;;;6.32;5.80;;;19.10;99.90;;;;;;2072515;28;20030;-68
2021/08/12 00:40:30;;;;;;;6.70;5.93;;;19.10;99.90;;;;;;2072246;28;20029;-68
2021/08/12 00:41:35;;;;;;;9.73;6.63;;;19.10;99.90;;;;;;2072700;28;20347;-68
2021/08/12 00:42:36;;;;;;;6.47;5.88;;;19.10;99.90;;;;;;2072342;28;20046;-68
2021/08/12 00:43:36;;;;;;;6.85;6.15;;;19.10;99.90;;;;;;2074942;28;20034;-68
2021/08/12 00:44:37;;;;;;;6.88;6.28;;;19.00;99.90;;;;;;2079147;28;20515;-68
2021/08/12 00:45:38;;;;;;;6.10;5.53;;;19.00;99.90;;;;;;2072341;28;20088;-68
2021/08/12 00:46:38;;;;;;;6.43;5.78;;;19.00;99.90;;;;;;2072254;28;20308;-68
2021/08/12 00:47:39;;;;;;;7.65;5.82;;;19.00;99.90;;;;;;2072683;28;20026;-68
2021/08/12 00:48:39;;;;;;;6.72;6.13;;;19.00;99.90;;;;;;2072301;28;20140;-68
2021/08/12 00:49:40;;;;;;;7.72;6.03;;;19.00;99.90;;;;;;2072243;28;20619;-68
2021/08/12 00:50:42;;;;;;;6.43;5.82;;;19.00;99.90;;;;;;2072427;28;20040;-68
2021/08/12 00:51:43;;;;;;;6.03;5.50;;;18.90;99.90;;;;;;2072330;28;20029;-68
2021/08/12 00:52:43;;;;;;;9.50;6.07;;;19.00;99.90;;;;;;2071887;28;20049;-68
2021/08/12 00:53:44;;;;;;;7.03;5.20;;;18.90;99.90;;;;;;2075651;28;20480;-68
2021/08/12 00:54:45;;;;;;;6.40;5.80;;;18.90;99.90;;;;;;2075528;28;20514;-68
2021/08/12 00:55:45;;;;;;;7.63;5.60;;;18.90;99.90;;;;;;2072007;28;20484;-68
2021/08/12 00:56:48;;;;;;;6.47;5.88;;;18.90;99.90;;;;;;2072284;28;20490;-68
2021/08/12 00:57:48;;;;;;;7.50;5.65;;;18.90;99.90;;;;;;2072430;28;20804;-68
2021/08/12 00:58:49;;;;;;;7.88;5.95;;;18.90;99.90;;;;;;2072200;28;20435;-68
2021/08/12 00:59:51;;;;;;;5.85;5.35;;;18.80;99.90;;;;;;2072248;28;20132;-68
2021/08/12 01:00:51;;;;;;;6.75;5.82;;;18.80;99.90;;;;;;2072308;28;20635;-68
2021/08/12 01:01:52;;;;;;;6.97;5.50;;;18.80;99.90;;;;;;2072207;28;20381;-68
2021/08/12 01:02:53;;;;;;;7.15;6.40;;;18.80;99.90;;;;;;2071802;28;20030;-68
2021/08/12 01:03:59;;;;;;;7.30;6.05;;;18.80;99.90;;;;;;2072562;28;20060;-68
2021/08/12 01:04:59;;;;;;;7.00;5.78;;;18.80;99.90;;;;;;2072081;28;20045;-68
2021/08/12 01:06:00;;;;;;;6.60;5.90;;;18.70;99.90;;;;;;2072277;28;20093;-68
2021/08/12 01:07:13;;;;;;;6.97;6.05;;;18.70;99.90;;;;;;2072256;28;20084;-68
2021/08/12 01:08:21;;;;;;;6.30;5.70;;;18.70;99.90;;;;;;2072366;28;20037;-68
2021/08/12 01:09:57;;;;;;;6.43;5.70;;;18.70;99.90;;;;;;2072285;28;20036;-68
2021/08/12 01:11:16;;;;;;;6.70;5.47;;;18.70;99.90;;;;;;2046872;29;20147;-68
2021/08/12 01:12:23;;;;;;;7.05;6.18;;;18.60;99.90;;;;;;2072407;28;20030;-68
2021/08/12 01:13:44;;;;;;;6.30;5.70;;;18.60;99.90;;;;;;2071521;28;20075;-68
2021/08/12 01:14:57;;;;;;;5.72;5.10;;;18.60;99.90;;;;;;2072582;28;20577;-68
2021/08/12 01:16:01;;;;;;;6.68;5.95;;;18.50;99.90;;;;;;2072250;28;20458;-68
2021/08/12 01:17:04;;;;;;;5.65;5.15;;;18.50;99.90;;;;;;2072502;28;20041;-68
2021/08/12 01:18:31;;;;;;;6.22;5.65;;;18.50;99.90;;;;;;2072115;28;20030;-68
2021/08/12 01:19:51;;;;;;;6.88;6.18;;;18.50;99.90;;;;;;2072052;28;20490;-68
2021/08/12 01:21:15;;;;;;;6.70;5.95;;;18.40;99.90;;;;;;2072524;28;20049;-68
2021/08/12 01:22:20;;;;;;;6.43;5.68;;;18.40;99.90;;;;;;2071928;28;20034;-68
2021/08/12 01:23:23;;;;;;;6.43;5.82;;;18.40;99.90;;;;;;2071684;28;20014;-68
2021/08/12 01:24:27;;;;;;;7.80;6.15;;;18.40;99.90;;;;;;2080203;28;20034;-68
2021/08/12 01:25:30;;;;;;;6.32;5.82;;;18.40;99.90;;;;;;2076109;28;20040;-68
2021/08/12 01:26:34;;;;;;;7.47;6.78;;;18.40;99.90;;;;;;2071995;28;20120;-68
2021/08/12 01:27:37;;;;;;;7.68;6.53;;;18.40;99.90;;;;;;2072068;28;20038;-68
2021/08/12 01:28:46;;;;;;;7.03;6.32;;;18.40;99.90;;;;;;2071935;28;20029;-68
2021/08/12 01:29:58;;;;;;;6.18;5.57;;;18.40;99.90;;;;;;2072411;28;20026;-68
2021/08/12 01:31:20;;;;;;;6.13;5.40;;;18.40;99.90;;;;;;2072259;28;20025;-68
2021/08/12 01:32:25;;;;;;;6.28;5.68;;;18.40;99.90;;;;;;2071965;28;20033;-68
2021/08/12 01:33:51;;;;;;;7.30;5.97;;;18.40;99.90;;;;;;2066992;28;20034;-68
2021/08/12 01:35:04;;;;;;;6.53;5.82;;;18.40;99.90;;;;;;2069731;28;20021;-68
2021/08/12 01:36:07;;;;;;;6.53;5.85;;;18.30;99.90;;;;;;2071504;28;20080;-68
2021/08/12 01:37:11;;;;;;;6.50;5.90;;;18.20;99.90;;;;;;2071940;28;20029;-68
2021/08/12 01:38:15;;;;;;;6.38;5.78;;;18.30;99.90;;;;;;2071852;28;20040;-68
2021/08/12 01:39:16;;;;;;;6.63;5.90;;;18.20;99.90;;;;;;2071813;28;20072;-68
2021/08/12 01:40:19;;;;;;;6.05;5.53;;;18.20;99.90;;;;;;2071732;28;20014;-68
2021/08/12 01:41:21;;;;;;;6.60;5.93;;;18.20;99.90;;;;;;2065039;28;20033;-68
2021/08/12 01:42:26;;;;;;;6.10;5.50;;;18.20;99.90;;;;;;2071563;28;20022;-68
2021/08/12 01:43:29;;;;;;;8.88;6.10;;;18.20;99.90;;;;;;2069392;28;20036;-68
2021/08/12 01:44:31;;;;;;;6.90;5.53;;;18.20;99.90;;;;;;2071356;28;20052;-68
2021/08/12 01:45:32;;;;;;;6.80;5.90;;;18.20;99.90;;;;;;2072074;28;20022;-68
2021/08/12 01:46:34;;;;;;;7.15;5.97;;;18.20;99.90;;;;;;2071419;28;20105;-68
2021/08/12 01:47:35;;;;;;;8.15;6.53;;;18.20;99.90;;;;;;2071981;28;20045;-68
2021/08/12 01:48:36;;;;;;;7.28;6.38;;;18.20;99.90;;;;;;2071781;28;20026;-68
2021/08/12 01:49:40;;;;;;;7.18;6.10;;;18.20;99.90;;;;;;2072226;28;20870;-68
2021/08/12 01:50:42;;;;;;;6.40;5.78;;;18.20;99.90;;;;;;2072079;28;20024;-68
2021/08/12 01:51:44;;;;;;;5.88;5.18;;;18.20;99.90;;;;;;2071813;28;20657;-68
2021/08/12 01:52:48;;;;;;;7.85;6.00;;;18.20;99.90;;;;;;2073683;28;20381;-68
2021/08/12 01:53:50;;;;;;;6.28;5.28;;;18.10;99.90;;;;;;2072414;28;20260;-68
2021/08/12 01:54:52;;;;;;;5.93;5.43;;;18.10;99.90;;;;;;2071651;28;20076;-68
2021/08/12 01:55:53;;;;;;;7.60;5.88;;;18.10;99.90;;;;;;2071745;28;20109;-68
2021/08/12 01:56:56;;;;;;;6.45;5.85;;;18.10;99.90;;;;;;2071820;28;20042;-68
2021/08/12 01:57:57;;;;;;;7.45;5.63;;;18.10;99.90;;;;;;2071896;28;20536;-68
2021/08/12 01:59:00;;;;;;;6.75;5.78;;;18.10;99.90;;;;;;2071932;28;20045;-68
2021/08/12 02:00:04;;;;;;;6.75;6.07;;;18.10;99.90;;;;;;2072337;28;20537;-68
2021/08/12 02:01:04;;;;;;;8.82;6.22;;;18.10;99.90;;;;;;2076190;28;20460;-68
2021/08/12 02:02:06;;;;;;;7.03;6.35;;;18.10;99.90;;;;;;2081242;28;20374;-68
2021/08/12 02:03:07;;;;;;;9.50;6.00;;;18.10;99.90;;;;;;2074601;28;20018;-68
2021/08/12 02:04:13;;;;;;;6.95;6.25;;;18.10;99.90;;;;;;2075395;28;20034;-68
2021/08/12 02:05:14;;;;;;;7.18;5.75;;;18.10;99.90;;;;;;2072934;28;20081;-68
2021/08/12 02:06:15;;;;;;;8.13;5.85;;;18.00;99.90;;;;;;2073168;28;20374;-68
2021/08/12 02:07:16;;;;;;;6.97;6.35;;;18.10;99.90;;;;;;2073047;28;20022;-68
2021/08/12 02:08:20;;;;;;;6.75;6.07;;;18.00;99.90;;;;;;2073355;28;20049;-68
2021/08/12 02:09:21;;;;;;;9.23;5.97;;;18.00;99.90;;;;;;2072906;28;20022;-68
2021/08/12 02:10:22;;;;;;;6.53;5.90;;;18.00;99.90;;;;;;2072994;28;20873;-68
2021/08/12 02:11:22;;;;;;;6.82;5.90;;;18.00;99.90;;;;;;2072871;28;20039;-68
2021/08/12 02:12:23;;;;;;;6.80;5.55;;;18.00;99.90;;;;;;2074082;28;20038;-68
2021/08/12 02:13:25;;;;;;;5.85;5.35;;;18.00;99.90;;;;;;2080637;28;20033;-68
2021/08/12 02:14:25;;;;;;;6.07;5.47;;;18.00;99.90;;;;;;2073834;28;20042;-68
2021/08/12 02:15:26;;;;;;;6.18;5.68;;;18.00;99.90;;;;;;2072884;28;20034;-68
2021/08/12 02:16:27;;;;;;;7.32;6.10;;;18.00;99.90;;;;;;2073397;28;20391;-68
2021/08/12 02:17:27;;;;;;;9.13;5.70;;;18.00;99.90;;;;;;2072957;28;20022;-68
2021/08/12 02:18:28;;;;;;;7.10;6.20;;;17.90;99.90;;;;;;2072340;28;20026;-68
2021/08/12 02:19:30;;;;;;;6.28;5.40;;;17.90;99.90;;;;;;2072405;28;20052;-68
2021/08/12 02:20:31;;;;;;;6.20;5.60;;;17.90;99.90;;;;;;2073028;28;20030;-68
2021/08/12 02:21:36;;;;;;;7.15;5.93;;;18.00;99.90;;;;;;2072945;28;20438;-68
2021/08/12 02:22:59;;;;;;;8.65;5.88;;;18.00;99.90;;;;;;2072605;28;20485;-68
2021/08/12 02:24:10;;;;;;;7.10;6.40;;;17.90;99.90;;;;;;2071774;28;20084;-68
2021/08/12 02:25:32;;;;;;;8.95;6.20;;;17.90;99.90;;;;;;2072330;28;20054;-68
2021/08/12 02:26:43;;;;;;;7.53;6.38;;;17.90;99.90;;;;;;2072446;28;20034;-68
2021/08/12 02:27:47;;;;;;;6.45;5.85;;;17.90;99.90;;;;;;2072878;28;20030;-68
2021/08/12 02:28:50;;;;;;;6.88;6.28;;;17.90;99.90;;;;;;2072554;28;20021;-68
2021/08/12 02:29:52;;;;;;;8.50;6.63;;;17.90;99.90;;;;;;2071627;28;20033;-68
2021/08/12 02:30:55;;;;;;;8.90;6.90;;;17.90;99.90;;;;;;2069990;28;20033;-68
2021/08/12 02:31:56;;;;;;;8.25;7.05;;;17.90;99.90;;;;;;2077183;28;20046;-68
2021/08/12 02:32:57;;;;;;;6.82;6.20;;;17.90;99.90;;;;;;2072458;28;20105;-68
2021/08/12 02:33:59;;;;;;;6.85;5.80;;;17.90;99.90;;;;;;2072557;28;20026;-68
2021/08/12 02:35:01;;;;;;;8.07;6.65;;;17.90;99.90;;;;;;2072744;28;20033;-68
2021/08/12 02:36:03;;;;;;;6.55;5.97;;;17.90;99.90;;;;;;2072991;28;20109;-68
2021/08/12 02:37:06;;;;;;;7.20;6.50;;;17.90;99.90;;;;;;2073112;28;20497;-68
2021/08/12 02:38:11;;;;;;;9.18;7.20;;;17.90;99.90;;;;;;2072540;28;20457;-68
2021/08/12 02:39:13;;;;;;;11.35;7.70;;;17.90;99.90;;;;;;2066865;28;20108;-68
2021/08/12 02:40:14;;;;;;;8.52;7.43;;;17.90;99.90;;;;;;2070898;28;20026;-68
2021/08/12 02:41:19;;;;;;;7.90;7.10;;;17.90;99.90;;;;;;2072773;28;20026;-68
2021/08/12 02:42:20;;;;;;;7.22;6.10;;;17.90;99.90;;;;;;2072435;28;20021;-68
2021/08/12 02:43:22;;;;;;;7.95;7.15;;;17.90;99.90;;;;;;2072686;28;20060;-68
2021/08/12 02:44:23;;;;;;;6.93;6.28;;;17.90;99.90;;;;;;2072993;28;20054;-68
2021/08/12 02:45:25;;;;;;;6.55;5.88;;;17.90;99.90;;;;;;2071559;28;20030;-68
2021/08/12 02:46:27;;;;;;;11.48;6.80;;;17.90;99.90;;;;;;2072792;28;20343;-68
2021/08/12 02:47:30;;;;;;;8.65;6.50;;;17.90;99.90;;;;;;2072404;28;20112;-68
2021/08/12 02:48:33;;;;;;;8.40;7.50;;;17.90;99.90;;;;;;2071666;28;20021;-68
2021/08/12 02:49:40;;;;;;;9.23;6.68;;;17.90;99.90;;;;;;2066031;28;20084;-68
2021/08/12 02:50:43;;;;;;;8.18;6.85;;;17.90;99.90;;;;;;2072696;28;20029;-68
2021/08/12 02:51:44;;;;;;;8.93;8.02;;;17.90;99.90;;;;;;2072797;28;20037;-68
2021/08/12 02:52:45;;;;;;;9.13;7.35;;;17.90;99.90;;;;;;2072418;28;20040;-68
2021/08/12 02:53:46;;;;;;;8.77;7.28;;;17.90;99.90;;;;;;2072861;28;20032;-68
2021/08/12 02:54:48;;;;;;;11.27;7.55;;;17.90;99.90;;;;;;2072377;28;20068;-68
2021/08/12 02:55:51;;;;;;;8.65;6.97;;;17.90;99.90;;;;;;2072987;28;20397;-68
2021/08/12 02:56:52;;;;;;;7.10;6.40;;;17.90;99.90;;;;;;2072858;28;20033;-68
2021/08/12 02:57:53;;;;;;;6.07;5.57;;;17.90;99.90;;;;;;2072727;28;20029;-68
2021/08/12 02:58:54;;;;;;;7.75;7.03;;;17.90;99.90;;;;;;2072653;28;20029;-68
2021/08/12 02:59:55;;;;;;;7.30;6.60;;;17.90;99.90;;;;;;2072858;28;20030;-68
2021/08/12 03:00:56;;;;;;;6.47;5.88;;;17.90;99.90;;;;;;2072624;28;20105;-68
2021/08/12 03:01:57;;;;;;;10.07;7.40;;;17.90;99.90;;;;;;2071528;28;20026;-68
2021/08/12 03:02:59;;;;;;;8.35;6.47;;;17.90;99.90;;;;;;2071348;28;20021;-68
2021/08/12 03:04:01;;;;;;;7.22;6.25;;;17.90;99.90;;;;;;2071713;28;20458;-68
2021/08/12 03:05:03;;;;;;;7.88;7.07;;;17.90;99.90;;;;;;2071707;28;20076;-68
2021/08/12 03:06:05;;;;;;;7.78;6.63;;;17.90;99.90;;;;;;2071951;28;20025;-68
2021/08/12 03:07:08;;;;;;;9.18;7.50;;;17.90;99.90;;;;;;2071842;28;20026;-68
2021/08/12 03:08:12;;;;;;;8.43;7.63;;;17.90;99.90;;;;;;2071951;28;20037;-68
2021/08/12 03:09:14;;;;;;;8.27;7.28;;;17.90;99.90;;;;;;2071673;28;20017;-68
2021/08/12 03:10:20;;;;;;;8.13;7.32;;;17.90;99.90;;;;;;2071671;28;20033;-68
2021/08/12 03:11:21;;;;;;;7.38;6.55;;;17.90;99.90;;;;;;2070464;28;20022;-68
2021/08/12 03:12:22;;;;;;;7.10;6.40;;;17.90;99.90;;;;;;2071536;28;20470;-68
2021/08/12 03:13:23;;;;;;;13.18;7.20;;;17.90;99.90;;;;;;2077972;28;20052;-68
2021/08/12 03:14:24;;;;;;;7.82;6.78;;;17.90;99.90;;;;;;2071111;28;20065;-68
2021/08/12 03:15:26;;;;;;;7.75;7.03;;;17.90;99.90;;;;;;2071079;28;20030;-68
2021/08/12 03:16:26;;;;;;;7.35;6.68;;;17.90;99.90;;;;;;2071852;28;20482;-68
2021/08/12 03:17:27;;;;;;;7.97;7.15;;;17.90;99.90;;;;;;2071201;28;20414;-68
2021/08/12 03:18:28;;;;;;;7.47;6.68;;;17.90;99.90;;;;;;2071629;28;20121;-68
2021/08/12 03:19:28;;;;;;;7.95;6.78;;;17.90;99.90;;;;;;2071459;28;20611;-68
2021/08/12 03:20:30;;;;;;;8.40;7.50;;;17.80;99.90;;;;;;2071332;28;20056;-68
2021/08/12 03:21:31;;;;;;;7.53;6.85;;;17.90;99.90;;;;;;2071004;28;20352;-68
2021/08/12 03:22:31;;;;;;;6.95;6.35;;;17.90;99.90;;;;;;2071345;28;20502;-68
2021/08/12 03:23:32;;;;;;;6.70;6.18;;;17.80;99.90;;;;;;2071035;28;20026;-68
2021/08/12 03:24:35;;;;;;;7.90;7.10;;;17.80;99.90;;;;;;2071496;28;20053;-68
2021/08/12 03:25:36;;;;;;;7.68;7.00;;;17.90;99.90;;;;;;2068269;28;20053;-68
2021/08/12 03:26:37;;;;;;;8.35;7.13;;;17.80;99.90;;;;;;2070883;28;20072;-68
2021/08/12 03:27:37;;;;;;;7.32;6.65;;;17.80;99.90;;;;;;2071526;28;20030;-68
2021/08/12 03:28:38;;;;;;;7.72;6.78;;;17.80;99.90;;;;;;2072526;28;20498;-68
2021/08/12 03:29:41;;;;;;;8.00;7.20;;;17.80;99.90;;;;;;2071274;28;20042;-68
2021/08/12 03:30:41;;;;;;;8.07;6.68;;;17.80;99.90;;;;;;2071293;28;20083;-68
2021/08/12 03:31:42;;;;;;;8.65;7.50;;;17.80;99.90;;;;;;2071232;28;20034;-68
2021/08/12 03:32:42;;;;;;;8.25;7.45;;;17.80;99.90;;;;;;2070917;28;20037;-68
2021/08/12 03:33:43;;;;;;;7.88;6.40;;;17.80;99.90;;;;;;2070436;28;20367;-68
2021/08/12 03:34:44;;;;;;;8.52;7.07;;;17.80;99.90;;;;;;2070902;28;20053;-68
2021/08/12 03:35:45;;;;;;;8.65;6.53;;;17.80;99.90;;;;;;2072839;28;20593;-68
2021/08/12 03:36:45;;;;;;;7.82;6.55;;;17.80;99.90;;;;;;2072842;28;20022;-68
2021/08/12 03:37:46;;;;;;;9.15;6.80;;;17.80;99.90;;;;;;2072500;28;20036;-68
2021/08/12 03:38:46;;;;;;;6.93;6.28;;;17.80;99.90;;;;;;2072127;28;20069;-68
2021/08/12 03:39:47;;;;;;;8.18;7.32;;;17.80;99.90;;;;;;2072885;28;20025;-68
2021/08/12 03:40:48;;;;;;;8.15;6.60;;;17.80;99.90;;;;;;2072781;28;20474;-68
2021/08/12 03:41:50;;;;;;;8.25;6.85;;;17.80;99.90;;;;;;2072230;28;20049;-68
2021/08/12 03:42:51;;;;;;;9.38;7.07;;;17.80;99.90;;;;;;2072378;28;20101;-68
2021/08/12 03:43:51;;;;;;;8.30;7.18;;;17.80;99.90;;;;;;2073150;28;20018;-68
2021/08/12 03:44:52;;;;;;;7.38;6.28;;;17.70;99.90;;;;;;2073127;28;20022;-68
2021/08/12 03:45:53;;;;;;;6.53;5.93;;;17.70;99.90;;;;;;2073690;28;20478;-68
2021/08/12 03:46:53;;;;;;;6.90;6.20;;;17.70;99.90;;;;;;2072934;28;20425;-68
2021/08/12 03:47:54;;;;;;;6.93;6.32;;;17.70;99.90;;;;;;2072076;28;20021;-68
2021/08/12 03:48:55;;;;;;;7.93;6.95;;;17.70;99.90;;;;;;2072204;28;20033;-68
2021/08/12 03:49:55;;;;;;;9.63;7.07;;;17.70;99.90;;;;;;2072957;28;20033;-68
2021/08/12 03:50:56;;;;;;;8.43;7.10;;;17.70;99.90;;;;;;2071999;28;20088;-68
2021/08/12 03:51:56;;;;;;;7.95;6.88;;;17.70;99.90;;;;;;2072256;28;20029;-68
2021/08/12 03:52:57;;;;;;;7.53;6.78;;;17.70;99.90;;;;;;2072304;28;20017;-68
2021/08/12 03:53:58;;;;;;;7.53;6.85;;;17.70;99.90;;;;;;2073152;28;20076;-68
2021/08/12 03:54:58;;;;;;;10.13;7.30;;;17.70;99.90;;;;;;2072561;28;20034;-68
2021/08/12 03:56:00;;;;;;;7.80;7.00;;;17.70;99.90;;;;;;2072809;28;20060;-68
2021/08/12 03:57:00;;;;;;;7.93;6.60;;;17.70;99.90;;;;;;2072986;28;20014;-68
2021/08/12 03:58:01;;;;;;;7.03;6.35;;;17.70;99.90;;;;;;2072753;28;20022;-68
2021/08/12 03:59:02;;;;;;;6.18;5.45;;;17.70;99.90;;;;;;2072788;28;20713;-68
2021/08/12 04:00:06;;;;;;;7.38;6.05;;;17.70;99.90;;;;;;2072875;28;20025;-68
2021/08/12 04:01:07;;;;;;;9.15;7.32;;;17.70;99.90;;;;;;2072864;28;20020;-68
2021/08/12 04:02:07;;;;;;;8.63;6.95;;;17.60;99.90;;;;;;2072673;28;20029;-68
2021/08/12 04:03:08;;;;;;;8.13;7.35;;;17.60;99.90;;;;;;2072242;28;20029;-68
2021/08/12 04:04:08;;;;;;;7.85;7.15;;;17.60;99.90;;;;;;2072658;28;20484;-68
2021/08/12 04:05:09;;;;;;;7.90;7.15;;;17.60;99.90;;;;;;2072593;28;20026;-68
2021/08/12 04:06:10;;;;;;;6.75;6.15;;;17.60;99.90;;;;;;2072793;28;20482;-68
2021/08/12 04:07:11;;;;;;;7.97;6.97;;;17.60;99.90;;;;;;2073136;28;20367;-68
2021/08/12 04:08:12;;;;;;;9.35;6.72;;;17.60;99.90;;;;;;2072531;28;20031;-68
2021/08/12 04:09:13;;;;;;;7.28;6.57;;;17.60;99.90;;;;;;2072770;28;20014;-68
2021/08/12 04:10:14;;;;;;;9.30;7.13;;;17.60;99.90;;;;;;2072692;28;20050;-68
2021/08/12 04:11:15;;;;;;;10.85;7.55;;;17.60;99.90;;;;;;2071811;28;20030;-68
2021/08/12 04:12:15;;;;;;;6.82;6.22;;;17.60;99.90;;;;;;2071783;28;20058;-68
2021/08/12 04:13:16;;;;;;;7.68;6.97;;;17.60;99.90;;;;;;2072544;28;20036;-68
2021/08/12 04:14:16;;;;;;;9.10;7.60;;;17.60;99.90;;;;;;2072744;28;20030;-68
2021/08/12 04:15:17;;;;;;;8.38;6.95;;;17.60;99.90;;;;;;2072198;28;20112;-68
2021/08/12 04:16:18;;;;;;;8.15;7.40;;;17.60;99.90;;;;;;2072763;28;20029;-68
2021/08/12 04:17:18;;;;;;;9.15;7.07;;;17.60;99.90;;;;;;2073974;28;20022;-68
2021/08/12 04:18:19;;;;;;;7.10;6.25;;;17.50;99.90;;;;;;2072364;28;20125;-68
2021/08/12 04:19:19;;;;;;;7.03;6.43;;;17.50;99.90;;;;;;2072918;28;20022;-68
2021/08/12 04:20:20;;;;;;;7.45;6.75;;;17.50;99.90;;;;;;2072469;28;20053;-68
2021/08/12 04:21:20;;;;;;;9.80;7.13;;;17.50;99.90;;;;;;2072255;28;20032;-68
2021/08/12 04:22:21;;;;;;;7.93;7.13;;;17.50;99.90;;;;;;2072642;28;20083;-68
2021/08/12 04:23:22;;;;;;;7.70;6.90;;;17.50;99.90;;;;;;2072261;28;20053;-68
2021/08/12 04:24:23;;;;;;;7.95;6.93;;;17.50;99.90;;;;;;2072733;28;20030;-68
2021/08/12 04:25:23;;;;;;;7.15;6.43;;;17.50;99.90;;;;;;2072501;28;20029;-68
2021/08/12 04:26:27;;;;;;;7.25;6.18;;;17.50;99.90;;;;;;2072682;28;20030;-68
2021/08/12 04:27:28;;;;;;;7.90;7.10;;;17.50;99.90;;;;;;2071519;28;20064;-68
2021/08/12 04:28:28;;;;;;;8.75;6.32;;;17.50;99.90;;;;;;2071573;28;20514;-68
2021/08/12 04:29:29;;;;;;;7.38;6.78;;;17.50;99.90;;;;;;2072168;28;20092;-68
2021/08/12 04:30:30;;;;;;;8.50;6.60;;;17.50;99.90;;;;;;2071800;28;20040;-68
2021/08/12 04:31:30;;;;;;;7.82;7.10;;;17.50;99.90;;;;;;2071908;28;20040;-68
2021/08/12 04:32:31;;;;;;;7.80;7.10;;;17.50;99.90;;;;;;2072071;28;20034;-68
2021/08/12 04:33:31;;;;;;;9.98;7.82;;;17.50;99.90;;;;;;2072878;28;20034;-68
2021/08/12 04:34:32;;;;;;;8.55;7.40;;;17.50;99.90;;;;;;2072078;28;20040;-68
2021/08/12 04:35:33;;;;;;;8.68;7.78;;;17.50;99.90;;;;;;2072208;28;20413;-68
2021/08/12 04:36:33;;;;;;;8.07;6.78;;;17.50;99.90;;;;;;2072059;28;20037;-68
2021/08/12 04:37:36;;;;;;;7.30;6.53;;;17.50;99.90;;;;;;2071692;28;20064;-68
2021/08/12 04:38:37;;;;;;;7.53;6.82;;;17.50;99.90;;;;;;2071859;28;20034;-68
2021/08/12 04:39:37;;;;;;;7.32;6.63;;;17.50;99.90;;;;;;2071889;28;20109;-68
2021/08/12 04:40:38;;;;;;;6.88;6.28;;;17.50;99.90;;;;;;2071944;28;20037;-68
2021/08/12 04:41:38;;;;;;;7.72;6.22;;;17.50;99.90;;;;;;2071693;28;20084;-68
2021/08/12 04:42:39;;;;;;;7.53;6.82;;;17.50;99.90;;;;;;2071155;28;20064;-68
2021/08/12 04:43:40;;;;;;;7.68;6.95;;;17.50;99.90;;;;;;2071383;28;20030;-68
2021/08/12 04:44:40;;;;;;;8.60;7.80;;;17.50;99.90;;;;;;2072100;28;20101;-68
2021/08/12 04:45:41;;;;;;;8.02;7.22;;;17.50;99.90;;;;;;2071712;28;20528;-68
2021/08/12 04:46:41;;;;;;;7.95;7.15;;;17.50;99.90;;;;;;2071658;28;20026;-68
2021/08/12 04:47:42;;;;;;;9.25;7.90;;;17.50;99.90;;;;;;2072017;28;20051;-68
2021/08/12 04:48:43;;;;;;;7.93;7.20;;;17.50;99.90;;;;;;2072281;28;20033;-68
2021/08/12 04:49:43;;;;;;;13.88;7.97;;;17.50;99.90;;;;;;2075679;28;20158;-68
2021/08/12 04:50:44;;;;;;;9.27;8.10;;;17.50;99.90;;;;;;2072074;28;20033;-68
2021/08/12 04:51:45;;;;;;;8.48;7.60;;;17.50;99.90;;;;;;2071307;28;20022;-68
2021/08/12 04:52:45;;;;;;;9.75;8.00;;;17.50;99.90;;;;;;2071648;28;20029;-68
2021/08/12 04:53:46;;;;;;;11.98;8.60;;;17.50;99.90;;;;;;2072158;28;20068;-68
2021/08/12 04:54:46;;;;;;;10.65;8.98;;;17.50;99.90;;;;;;2071934;28;20033;-68
2021/08/12 04:55:47;;;;;;;10.80;9.77;;;17.50;99.90;;;;;;2071868;28;20037;-68
2021/08/12 04:56:48;;;;;;;11.40;9.95;;;17.50;99.90;;;;;;2071934;28;20041;-68
2021/08/12 04:57:48;;;;;;;13.43;9.25;;;17.50;99.90;;;;;;2071924;28;20030;-68
2021/08/12 04:58:49;;;;;;;12.68;9.00;;;17.50;99.90;;;;;;2072199;28;20042;-68
2021/08/12 04:59:49;;;;;;;10.15;9.23;;;17.60;99.90;;;;;;2072050;28;20109;-68
2021/08/12 05:00:50;;;;;;;13.40;9.77;;;17.60;99.90;;;;;;2071564;28;20441;-68
2021/08/12 05:01:53;;;;;;;10.18;9.18;;;17.60;99.90;;;;;;2071857;28;20347;-68
2021/08/12 05:02:54;;;;;;;9.70;8.70;;;17.60;99.90;;;;;;2071345;28;20393;-68
2021/08/12 05:03:54;;;;;;;9.95;8.98;;;17.60;99.90;;;;;;2071628;28;20109;-68
2021/08/12 05:04:55;;;;;;;10.20;9.00;;;17.60;99.90;;;;;;2071612;28;20051;-68
2021/08/12 05:06:09;;;;;;;10.07;9.05;;;17.60;99.90;;;;;;2074441;28;20040;-68
2021/08/12 05:07:09;;;;;;;9.30;8.50;;;17.60;99.90;;;;;;2072094;28;20026;-68
2021/08/12 05:08:10;;;;;;;9.95;8.40;;;17.60;99.90;;;;;;2071571;28;20492;-68
2021/08/12 05:09:10;;;;;;;9.93;9.02;;;17.60;99.90;;;;;;2071852;28;20394;-68
2021/08/12 05:10:11;;;;;;;10.18;9.10;;;17.60;99.90;;;;;;2071726;28;20037;-68
2021/08/12 05:11:13;;;;;;;9.18;8.23;;;17.60;99.90;;;;;;2071737;28;20033;-68
2021/08/12 05:12:19;;;;;;;10.90;9.80;;;17.70;99.90;;;;;;2069935;28;20931;-68
2021/08/12 05:13:20;;;;;;;10.60;9.57;;;17.70;99.90;;;;;;2066682;28;20398;-68
2021/08/12 05:14:20;;;;;;;10.50;9.40;;;17.70;99.90;;;;;;2071737;28;20107;-68
2021/08/12 05:15:21;;;;;;;10.43;9.35;;;17.70;99.90;;;;;;2071025;28;20030;-69
2021/08/12 05:16:21;;;;;;;9.80;8.80;;;17.70;99.90;;;;;;2070962;28;20109;-68
2021/08/12 05:17:22;;;;;;;9.93;9.02;;;17.80;99.90;;;;;;2071498;28;20033;-68
2021/08/12 05:18:23;;;;;;;11.02;9.02;;;17.80;99.90;;;;;;2071771;28;20069;-68
2021/08/12 05:19:23;;;;;;;9.38;8.45;;;17.80;99.90;;;;;;2071808;28;20029;-68
2021/08/12 05:20:24;;;;;;;9.75;8.75;;;17.80;99.90;;;;;;2070974;28;20032;-68
2021/08/12 05:21:24;;;;;;;9.30;8.40;;;17.80;99.90;;;;;;2070848;28;20030;-68
2021/08/12 05:22:25;;;;;;;15.55;9.52;;;17.80;99.90;;;;;;2067876;28;20030;-68
2021/08/12 05:23:26;;;;;;;11.07;9.18;;;17.90;99.90;;;;;;2065639;28;20029;-68
2021/08/12 05:24:26;;;;;;;10.73;9.68;;;17.90;99.90;;;;;;2065390;28;20037;-68